createdAt,value
2023-04-18T00:01:10.097Z,3.00
2023-04-18T00:03:41.735Z,3.10
2023-04-18T00:06:14.708Z,2.40
2023-04-18T00:08:46.330Z,2.90
2023-04-18T00:11:16.529Z,2.30
2023-04-18T00:13:48.349Z,4.20
2023-04-18T00:16:20.058Z,4.20
2023-04-18T00:18:54.842Z,3.00
2023-04-18T00:21:26.399Z,3.30
2023-04-18T00:23:57.578Z,3.70
2023-04-18T00:26:28.787Z,2.80
2023-04-18T00:29:00.522Z,3.10
2023-04-18T00:31:30.808Z,2.90
2023-04-18T00:34:01.858Z,3.50
2023-04-18T00:36:33.119Z,3.50
2023-04-18T00:39:04.368Z,2.40
2023-04-18T00:41:36.130Z,5.00
2023-04-18T00:44:06.604Z,2.70
2023-04-18T00:46:37.683Z,2.60
2023-04-18T00:49:08.525Z,2.70
2023-04-18T00:51:39.597Z,3.20
2023-04-18T00:54:13.821Z,3.50
2023-04-18T00:56:44.904Z,4.10
2023-04-18T00:59:15.385Z,2.80
2023-04-18T01:01:48.689Z,4.00
2023-04-18T01:04:20.584Z,3.00
2023-04-18T01:06:51.818Z,2.80
2023-04-18T01:09:23.679Z,2.80
2023-04-18T01:11:55.894Z,3.80
2023-04-18T01:14:33.495Z,4.50
2023-04-18T01:17:12.542Z,4.00
2023-04-18T01:19:44.694Z,3.80
2023-04-18T01:22:18.340Z,4.40
2023-04-18T01:24:49.464Z,4.80
2023-04-18T01:27:21.966Z,5.40
2023-04-18T01:29:52.787Z,3.40
2023-04-18T01:32:25.283Z,3.60
2023-04-18T01:34:56.236Z,3.80
2023-04-18T01:37:25.832Z,3.30
2023-04-18T01:39:56.573Z,3.60
2023-04-18T01:42:26.854Z,4.60
2023-04-18T01:44:57.554Z,4.90
2023-04-18T01:47:27.530Z,3.50
2023-04-18T01:49:57.728Z,3.80
2023-04-18T01:52:29.165Z,4.20
2023-04-18T01:55:02.538Z,4.40
2023-04-18T01:57:32.491Z,4.30
2023-04-18T02:02:33.998Z,3.30
2023-04-18T02:05:04.465Z,5.30
2023-04-18T02:10:05.029Z,4.50
2023-04-18T02:12:37.330Z,3.60
2023-04-18T02:15:09.928Z,3.10
2023-04-18T02:17:40.717Z,3.60
2023-04-18T02:20:12.564Z,4.10
2023-04-18T02:22:45.648Z,4.90
2023-04-18T02:25:15.073Z,6.00
2023-04-18T02:27:46.495Z,4.70
2023-04-18T02:30:17.135Z,4.30
2023-04-18T02:32:51.678Z,3.40
2023-04-18T02:35:28.794Z,5.80
2023-04-18T02:38:03.342Z,6.80
2023-04-18T02:40:34.469Z,5.70
2023-04-18T02:43:05.584Z,7.90
2023-04-18T02:45:39.095Z,4.50
2023-04-18T02:48:09.657Z,5.20
2023-04-18T02:50:43.143Z,4.60
2023-04-18T02:53:14.733Z,4.20
2023-04-18T02:55:56.463Z,5.20
2023-04-18T02:58:30.834Z,4.50
2023-04-18T03:01:13.654Z,4.70
2023-04-18T03:03:54.804Z,7.10
2023-04-18T03:06:35.259Z,5.30
2023-04-18T03:09:06.110Z,6.10
2023-04-18T03:11:38.523Z,6.30
2023-04-18T03:14:08.319Z,4.80
2023-04-18T03:16:50.446Z,4.30
2023-04-18T03:19:25.638Z,4.30
2023-04-18T03:21:56.674Z,5.70
2023-04-18T03:26:58.537Z,4.30
2023-04-18T03:29:29.073Z,5.00
2023-04-18T03:31:59.430Z,6.30
2023-04-18T03:34:29.656Z,6.00
2023-04-18T03:37:00.293Z,6.30
2023-04-18T03:39:30.645Z,5.60
2023-04-18T03:42:00.543Z,5.20
2023-04-18T03:44:30.251Z,5.30
2023-04-18T03:47:00.868Z,5.20
2023-04-18T03:49:31.581Z,5.00
2023-04-18T03:52:01.502Z,5.60
2023-04-18T03:54:31.118Z,5.80
2023-04-18T03:57:00.431Z,6.60
2023-04-18T03:59:31.052Z,5.70
2023-04-18T04:02:01.628Z,5.40
2023-04-18T04:04:32.670Z,5.90
2023-04-18T04:07:02.181Z,7.00
2023-04-18T04:09:31.982Z,6.90
2023-04-18T04:12:03.634Z,6.80
2023-04-18T04:14:33.815Z,6.90
2023-04-18T04:17:03.717Z,5.80
2023-04-18T04:19:33.598Z,7.80
2023-04-18T04:22:15.652Z,9.10
2023-04-18T04:24:47.140Z,8.40
2023-04-18T04:27:19.384Z,11.00
2023-04-18T04:29:50.211Z,7.00
2023-04-18T04:32:21.033Z,6.10
2023-04-18T04:37:21.205Z,5.00
2023-04-18T04:40:01.843Z,6.30
2023-04-18T04:42:44.242Z,5.70
2023-04-18T04:45:20.178Z,4.80
2023-04-18T04:47:50.716Z,5.90
2023-04-18T04:50:19.824Z,4.70
2023-04-18T04:52:49.356Z,5.80
2023-04-18T04:55:19.368Z,5.10
2023-04-18T04:57:48.245Z,5.20
2023-04-18T05:00:47.316Z,6.70
2023-04-18T05:03:17.336Z,7.20
2023-04-18T05:05:46.637Z,9.40
2023-04-18T05:08:15.767Z,8.30
2023-04-18T05:10:46.234Z,9.30
2023-04-18T05:13:15.273Z,9.60
2023-04-18T05:15:44.352Z,7.70
2023-04-18T05:18:14.791Z,8.90
2023-04-18T05:20:44.278Z,10.90
2023-04-18T05:23:13.488Z,7.90
2023-04-18T05:25:42.999Z,8.80
2023-04-18T05:28:11.770Z,5.90
2023-04-18T05:30:41.283Z,4.90
2023-04-18T05:33:10.059Z,6.40
2023-04-18T05:35:39.841Z,8.20
2023-04-18T05:38:09.187Z,5.90
2023-04-18T05:40:38.272Z,4.60
2023-04-18T05:43:07.160Z,6.90
2023-04-18T05:45:35.958Z,5.60
2023-04-18T05:48:05.018Z,8.30
2023-04-18T05:50:33.829Z,10.80
2023-04-18T05:53:02.728Z,7.70
2023-04-18T05:55:31.821Z,6.70
2023-04-18T05:58:01.230Z,6.80
2023-04-18T06:00:30.213Z,8.30
2023-04-18T06:02:59.160Z,8.50
2023-04-18T06:05:28.758Z,5.60
2023-04-18T06:07:58.109Z,5.10
2023-04-18T06:10:27.101Z,5.10
2023-04-18T06:12:55.682Z,6.10
2023-04-18T06:15:25.509Z,6.30
2023-04-18T06:17:54.532Z,7.20
2023-04-18T06:20:23.525Z,5.60
2023-04-18T06:22:52.090Z,6.70
2023-04-18T06:25:21.173Z,4.90
2023-04-18T06:27:50.050Z,7.20
2023-04-18T06:30:22.291Z,5.20
2023-04-18T06:32:51.352Z,5.50
2023-04-18T06:35:20.249Z,8.00
2023-04-18T06:37:49.508Z,5.60
2023-04-18T06:40:18.166Z,6.70
2023-04-18T06:42:47.100Z,6.90
2023-04-18T06:45:16.076Z,8.50
2023-04-18T06:47:45.455Z,6.70
2023-04-18T06:50:15.306Z,9.30
2023-04-18T06:52:47.354Z,8.20
2023-04-18T06:55:16.047Z,7.00
2023-04-18T06:57:45.047Z,9.60
2023-04-18T07:00:14.698Z,8.80
2023-04-18T07:02:43.932Z,8.00
2023-04-18T07:05:13.138Z,6.00
2023-04-18T07:07:41.838Z,6.20
2023-04-18T07:10:11.866Z,6.70
2023-04-18T07:12:40.664Z,8.30
2023-04-18T07:15:10.191Z,7.20
2023-04-18T07:17:39.009Z,5.50
2023-04-18T07:20:08.697Z,7.70
2023-04-18T07:22:38.048Z,7.20
2023-04-18T07:25:07.239Z,7.90
2023-04-18T07:27:37.454Z,7.80
2023-04-18T07:30:07.007Z,7.60
2023-04-18T07:32:35.905Z,7.70
2023-04-18T07:35:05.576Z,5.70
2023-04-18T07:37:34.649Z,5.90
2023-04-18T07:40:04.829Z,6.10
2023-04-18T07:42:33.657Z,6.40
2023-04-18T07:45:02.943Z,7.50
2023-04-18T07:47:32.596Z,4.50
2023-04-18T07:50:03.255Z,5.60
2023-04-18T07:52:31.883Z,4.10
2023-04-18T07:55:00.666Z,4.70
2023-04-18T07:57:29.674Z,4.80
2023-04-18T07:59:58.460Z,4.80
2023-04-18T08:02:27.350Z,4.50
2023-04-18T08:04:56.744Z,6.40
2023-04-18T08:07:25.956Z,4.40
2023-04-18T08:09:55.139Z,6.30
2023-04-18T08:12:24.355Z,5.10
2023-04-18T08:14:53.848Z,4.30
2023-04-18T08:17:23.679Z,5.30
2023-04-18T08:19:52.345Z,5.40
2023-04-18T08:22:21.636Z,3.80
2023-04-18T08:25:03.856Z,5.00
2023-04-18T08:27:34.476Z,4.70
2023-04-18T08:30:05.056Z,6.70
2023-04-18T08:32:33.933Z,5.40
2023-04-18T08:35:04.518Z,3.70
2023-04-18T08:40:09.049Z,4.50
2023-04-18T08:42:38.806Z,3.90
2023-04-18T08:45:09.678Z,4.20
2023-04-18T08:47:38.429Z,4.10
2023-04-18T08:50:09.482Z,3.00
2023-04-18T08:52:40.093Z,3.60
2023-04-18T08:55:10.600Z,3.60
2023-04-18T08:57:40.115Z,4.10
2023-04-18T09:00:12.190Z,3.90
2023-04-18T09:02:43.064Z,4.70
2023-04-18T09:05:19.350Z,4.40
2023-04-18T09:07:49.840Z,4.80
2023-04-18T09:10:36.192Z,4.60
2023-04-18T09:13:04.886Z,5.30
2023-04-18T09:15:34.799Z,4.20
2023-04-18T09:18:10.765Z,5.70
2023-04-18T09:20:44.874Z,5.00
2023-04-18T09:23:25.182Z,4.90
2023-04-18T09:25:54.929Z,4.20
2023-04-18T09:28:29.462Z,3.90
2023-04-18T09:31:18.391Z,4.00
2023-04-18T09:33:57.566Z,5.10
2023-04-18T09:36:28.066Z,4.40
2023-04-18T09:38:57.555Z,4.50
2023-04-18T09:41:27.551Z,5.40
2023-04-18T09:44:15.382Z,5.60
2023-04-18T09:46:47.403Z,4.20
2023-04-18T09:49:18.930Z,4.20
2023-04-18T09:51:51.227Z,4.20
2023-04-18T09:54:24.114Z,5.40
2023-04-18T09:56:54.551Z,4.50
2023-04-18T09:59:49.517Z,5.00
2023-04-18T10:02:23.156Z,5.20
2023-04-18T10:04:54.697Z,6.70
2023-04-18T10:07:26.133Z,4.10
2023-04-18T10:09:54.917Z,4.00
2023-04-18T10:12:25.969Z,5.70
2023-04-18T10:14:55.254Z,4.20
2023-04-18T10:17:24.286Z,4.10
2023-04-18T10:20:13.132Z,6.10
2023-04-18T10:22:41.778Z,5.50
2023-04-18T10:25:11.410Z,4.80
2023-04-18T10:27:49.153Z,4.10
2023-04-18T10:30:19.159Z,7.90
2023-04-18T10:32:47.845Z,4.70
2023-04-18T10:35:17.318Z,5.30
2023-04-18T10:37:52.964Z,4.80
2023-04-18T10:40:34.862Z,4.40
2023-04-18T10:43:03.836Z,3.80
2023-04-18T10:45:36.736Z,4.70
2023-04-18T10:48:26.506Z,4.00
2023-04-18T10:51:19.415Z,4.00
2023-04-18T10:53:57.876Z,4.00
2023-04-18T10:56:28.454Z,4.30
2023-04-18T10:59:02.726Z,4.90
2023-04-18T11:01:33.364Z,5.70
2023-04-18T11:04:02.421Z,6.50
2023-04-18T11:06:31.811Z,4.60
2023-04-18T11:09:11.751Z,6.50
2023-04-18T11:14:10.139Z,5.40
2023-04-18T11:16:40.078Z,2.50
2023-04-18T11:19:20.404Z,4.20
2023-04-18T11:21:49.587Z,3.80
2023-04-18T11:24:24.747Z,4.90
2023-04-18T11:26:56.457Z,3.40
2023-04-18T11:29:25.143Z,3.70
2023-04-18T11:31:57.501Z,4.90
2023-04-18T11:34:32.758Z,3.80
2023-04-18T11:37:08.302Z,4.80
2023-04-18T11:39:44.074Z,5.80
2023-04-18T11:42:12.743Z,8.10
2023-04-18T11:44:46.734Z,3.60
2023-04-18T11:47:29.178Z,4.30
2023-04-18T11:50:04.136Z,4.60
2023-04-18T11:52:34.523Z,6.50
2023-04-18T11:55:17.986Z,5.20
2023-04-18T11:58:01.708Z,5.50
2023-04-18T12:00:39.076Z,4.10
2023-04-18T12:03:19.133Z,6.00
2023-04-18T12:05:48.501Z,5.60
2023-04-18T12:08:21.315Z,5.80
2023-04-18T12:10:52.966Z,4.60
2023-04-18T12:13:27.013Z,4.80
2023-04-18T12:15:56.617Z,5.90
2023-04-18T12:18:25.678Z,4.50
2023-04-18T12:20:54.785Z,4.30
2023-04-18T12:23:39.334Z,5.40
2023-04-18T12:26:15.573Z,4.60
2023-04-18T12:28:51.866Z,4.00
2023-04-18T12:31:22.094Z,5.20
2023-04-18T12:33:51.175Z,4.60
2023-04-18T12:36:24.096Z,4.40
2023-04-18T12:38:52.967Z,4.20
2023-04-18T12:41:21.727Z,4.50
2023-04-18T12:43:50.429Z,6.00
2023-04-18T12:46:19.366Z,5.00
2023-04-18T12:48:48.199Z,4.30
2023-04-18T12:51:17.097Z,7.20
2023-04-18T12:53:46.492Z,6.20
2023-04-18T12:56:15.892Z,6.40
2023-04-18T12:58:44.886Z,7.40
2023-04-18T13:01:14.438Z,4.40
2023-04-18T13:03:45.618Z,4.10
2023-04-18T13:06:18.221Z,4.20
2023-04-18T13:08:47.728Z,4.00
2023-04-18T13:11:18.349Z,4.30
2023-04-18T13:13:47.550Z,3.80
2023-04-18T13:16:16.604Z,6.40
2023-04-18T13:21:14.535Z,6.00
2023-04-18T13:23:43.321Z,5.20
2023-04-18T13:26:12.490Z,4.80
2023-04-18T13:28:41.096Z,3.90
2023-04-18T13:31:09.788Z,5.10
2023-04-18T13:33:40.518Z,6.80
2023-04-18T13:36:09.555Z,6.20
2023-04-18T13:38:38.703Z,2.80
2023-04-18T13:41:12.878Z,5.20
2023-04-18T13:43:42.328Z,4.80
2023-04-18T13:46:12.078Z,7.10
2023-04-18T13:51:09.712Z,6.60
2023-04-18T13:53:38.925Z,5.00
2023-04-18T13:56:08.108Z,5.80
2023-04-18T13:58:36.793Z,4.40
2023-04-18T14:01:05.933Z,4.30
2023-04-18T14:03:36.417Z,4.80
2023-04-18T14:06:07.055Z,6.30
2023-04-18T14:08:36.148Z,5.60
2023-04-18T14:11:05.032Z,5.60
2023-04-18T14:13:33.664Z,5.30
2023-04-18T14:16:02.432Z,4.00
2023-04-18T14:18:31.599Z,5.20
2023-04-18T14:21:00.632Z,5.20
2023-04-18T14:23:29.428Z,5.10
2023-04-18T14:25:58.245Z,5.90
2023-04-18T14:28:27.883Z,6.00
2023-04-18T14:30:58.135Z,6.00
2023-04-18T14:33:26.805Z,5.40
2023-04-18T14:35:56.095Z,4.60
2023-04-18T14:38:24.770Z,7.30
2023-04-18T14:40:54.699Z,7.20
2023-04-18T14:43:23.337Z,5.80
2023-04-18T14:45:52.563Z,5.10
2023-04-18T14:48:21.627Z,4.20
2023-04-18T14:50:58.444Z,4.80
2023-04-18T14:53:27.451Z,5.00
2023-04-18T14:55:56.704Z,11.60
2023-04-18T14:58:26.143Z,5.50
2023-04-18T15:00:55.189Z,4.30
2023-04-18T15:03:24.017Z,6.40
2023-04-18T15:05:53.635Z,6.00
2023-04-18T15:08:22.721Z,6.30
2023-04-18T15:10:51.505Z,5.40
2023-04-18T15:13:20.805Z,7.10
2023-04-18T15:15:54.430Z,5.10
2023-04-18T15:18:23.313Z,5.50
2023-04-18T15:20:52.124Z,5.90
2023-04-18T15:23:21.130Z,4.60
2023-04-18T15:25:49.970Z,5.40
2023-04-18T15:28:19.782Z,6.40
2023-04-18T15:30:48.385Z,5.60
2023-04-18T15:33:19.509Z,5.30
2023-04-18T15:35:48.503Z,7.60
2023-04-18T15:38:17.405Z,6.60
2023-04-18T15:40:46.264Z,6.50
2023-04-18T15:43:17.391Z,6.10
2023-04-18T15:45:47.241Z,6.50
2023-04-18T15:48:15.935Z,5.20
2023-04-18T15:50:50.984Z,6.60
2023-04-18T15:53:19.952Z,6.30
2023-04-18T15:55:48.534Z,5.30
2023-04-18T15:58:17.797Z,5.80
2023-04-18T16:00:47.038Z,5.20
2023-04-18T16:03:16.157Z,7.10
2023-04-18T16:05:44.907Z,5.70
2023-04-18T16:08:13.699Z,4.70
2023-04-18T16:10:43.651Z,3.60
2023-04-18T16:13:12.510Z,3.70
2023-04-18T16:15:44.254Z,3.80
2023-04-18T16:18:13.261Z,4.40
2023-04-18T16:20:42.305Z,6.50
2023-04-18T16:23:11.468Z,7.40
2023-04-18T16:25:40.433Z,5.40
2023-04-18T16:28:09.018Z,5.60
2023-04-18T16:30:38.020Z,6.20
2023-04-18T16:33:06.838Z,5.90
2023-04-18T16:35:35.898Z,6.60
2023-04-18T16:38:05.309Z,4.90
2023-04-18T16:40:35.322Z,8.00
2023-04-18T16:45:33.608Z,6.10
2023-04-18T16:48:02.299Z,6.10
2023-04-18T16:50:31.394Z,5.80
2023-04-18T16:52:59.974Z,6.10
2023-04-18T16:55:28.709Z,5.70
2023-04-18T16:57:57.233Z,8.30
2023-04-18T17:00:26.050Z,8.30
2023-04-18T17:02:56.243Z,10.70
2023-04-18T17:05:26.368Z,9.10
2023-04-18T17:07:58.476Z,5.40
2023-04-18T17:10:30.230Z,5.90
2023-04-18T17:12:59.587Z,9.00
2023-04-18T17:15:28.209Z,8.70
2023-04-18T17:18:00.466Z,7.40
2023-04-18T17:20:29.247Z,5.60
2023-04-18T17:22:57.860Z,6.90
2023-04-18T17:25:26.258Z,6.80
2023-04-18T17:27:54.790Z,6.80
2023-04-18T17:30:23.610Z,7.50
2023-04-18T17:32:53.053Z,9.30
2023-04-18T17:35:22.208Z,14.50
2023-04-18T17:37:53.167Z,22.50
2023-04-18T17:40:24.143Z,21.80
2023-04-18T17:42:52.666Z,29.30
2023-04-18T17:45:21.651Z,31.50
2023-04-18T17:47:51.079Z,20.30
2023-04-18T17:50:19.975Z,25.60
2023-04-18T17:52:48.541Z,20.20
2023-04-18T17:55:17.177Z,17.60
2023-04-18T17:57:45.867Z,16.30
2023-04-18T18:00:15.057Z,16.00
2023-04-18T18:02:44.915Z,14.60
2023-04-18T18:05:14.811Z,19.20
2023-04-18T18:07:48.228Z,12.60
2023-04-18T18:10:23.901Z,12.10
2023-04-18T18:12:53.021Z,19.00
2023-04-18T18:15:21.561Z,10.90
2023-04-18T18:17:50.915Z,8.30
2023-04-18T18:20:20.108Z,11.20
2023-04-18T18:22:48.663Z,11.20
2023-04-18T18:25:17.397Z,13.80
2023-04-18T18:27:45.953Z,10.40
2023-04-18T18:30:14.861Z,10.90
2023-04-18T18:32:43.907Z,9.20
2023-04-18T18:35:13.120Z,6.50
2023-04-18T18:37:41.698Z,7.70
2023-04-18T18:40:10.722Z,7.20
2023-04-18T18:42:42.744Z,9.40
2023-04-18T18:47:40.217Z,8.40
2023-04-18T18:50:09.672Z,7.50
2023-04-18T18:52:40.912Z,7.90
2023-04-18T18:55:10.977Z,7.30
2023-04-18T18:57:39.576Z,6.90
2023-04-18T19:00:12.381Z,9.90
2023-04-18T19:02:41.204Z,9.20
2023-04-18T19:05:12.884Z,9.40
2023-04-18T19:07:44.591Z,7.80
2023-04-18T19:10:13.378Z,8.30
2023-04-18T19:12:42.026Z,7.20
2023-04-18T19:15:11.889Z,7.70
2023-04-18T19:17:40.727Z,8.90
2023-04-18T19:20:09.878Z,7.80
2023-04-18T19:22:38.547Z,7.70
2023-04-18T19:25:07.976Z,8.80
2023-04-18T19:27:36.513Z,8.40
2023-04-18T19:30:05.790Z,8.10
2023-04-18T19:32:34.595Z,7.80
2023-04-18T19:35:03.224Z,10.80
2023-04-18T19:37:32.102Z,9.70
2023-04-18T19:40:01.421Z,10.30
2023-04-18T19:42:29.964Z,10.10
2023-04-18T19:45:00.541Z,9.10
2023-04-18T19:47:34.082Z,11.60
2023-04-18T19:50:02.988Z,13.00
2023-04-18T19:52:31.548Z,14.10
2023-04-18T19:55:00.191Z,11.20
2023-04-18T19:57:29.878Z,12.10
2023-04-18T19:59:58.420Z,13.30
2023-04-18T20:02:27.077Z,9.70
2023-04-18T20:04:56.038Z,12.70
2023-04-18T20:07:26.277Z,11.90
2023-04-18T20:09:55.095Z,14.20
2023-04-18T20:12:23.911Z,12.90
2023-04-18T20:14:52.762Z,11.80
2023-04-18T20:17:21.871Z,14.30
2023-04-18T20:19:51.342Z,12.60
2023-04-18T20:22:20.077Z,8.80
2023-04-18T20:24:49.515Z,7.70
2023-04-18T20:27:20.766Z,9.30
2023-04-18T20:29:49.656Z,7.40
2023-04-18T20:32:19.069Z,8.90
2023-04-18T20:34:48.682Z,7.60
2023-04-18T20:37:20.117Z,7.60
2023-04-18T20:39:49.101Z,11.50
2023-04-18T20:42:18.906Z,13.30
2023-04-18T20:44:47.905Z,13.70
2023-04-18T20:47:16.436Z,11.30
2023-04-18T20:49:45.030Z,15.60
2023-04-18T20:52:14.575Z,13.90
2023-04-18T20:54:43.269Z,13.30
2023-04-18T20:57:11.994Z,15.10
2023-04-18T20:59:40.914Z,16.10
2023-04-18T21:02:10.005Z,12.30
2023-04-18T21:04:39.123Z,12.50
2023-04-18T21:07:07.795Z,10.00
2023-04-18T21:09:37.289Z,10.50
2023-04-18T21:12:06.577Z,11.20
2023-04-18T21:14:35.388Z,8.20
2023-04-18T21:17:04.308Z,7.20
2023-04-18T21:19:33.398Z,8.70
2023-04-18T21:22:02.416Z,7.10
2023-04-18T21:24:31.104Z,8.60
2023-04-18T21:26:59.958Z,8.10
2023-04-18T21:29:28.808Z,9.60
2023-04-18T21:31:58.232Z,9.20
2023-04-18T21:34:27.779Z,11.30
2023-04-18T21:36:58.053Z,8.50
2023-04-18T21:39:28.312Z,9.50
2023-04-18T21:41:58.403Z,7.10
2023-04-18T21:46:56.964Z,7.80
2023-04-18T21:49:25.981Z,6.50
2023-04-18T21:51:55.642Z,7.50
2023-04-18T21:54:24.675Z,7.00
2023-04-18T21:56:53.506Z,8.30
2023-04-18T21:59:22.944Z,7.30
2023-04-18T22:01:51.834Z,7.10
2023-04-18T22:04:22.521Z,7.80
2023-04-18T22:06:55.896Z,7.50
2023-04-18T22:09:24.749Z,8.10
2023-04-18T22:11:57.137Z,6.80
2023-04-18T22:14:26.611Z,5.90
2023-04-18T22:16:55.714Z,8.00
2023-04-18T22:19:25.199Z,6.80
2023-04-18T22:21:54.605Z,6.90
2023-04-18T22:24:24.918Z,7.40
2023-04-18T22:26:53.917Z,8.80
2023-04-18T22:29:23.011Z,7.40
2023-04-18T22:31:51.959Z,8.10
2023-04-18T22:34:20.912Z,8.80
2023-04-18T22:36:49.844Z,9.10
2023-04-18T22:39:18.738Z,8.60
2023-04-18T22:41:47.901Z,8.80
2023-04-18T22:44:17.658Z,8.00
2023-04-18T22:46:48.531Z,8.70
2023-04-18T22:49:18.882Z,8.90
2023-04-18T22:51:49.488Z,8.90
2023-04-18T22:59:19.829Z,9.10
2023-04-18T23:01:48.695Z,15.40
2023-04-18T23:04:17.975Z,9.30
2023-04-18T23:06:47.394Z,10.40
2023-04-18T23:09:20.148Z,9.80
2023-04-18T23:11:49.886Z,10.10
2023-04-18T23:14:19.443Z,6.60
2023-04-18T23:16:49.078Z,11.40
2023-04-18T23:19:21.062Z,8.60
2023-04-18T23:21:50.027Z,8.30
2023-04-18T23:24:18.671Z,11.20
2023-04-18T23:26:47.937Z,10.50
2023-04-18T23:29:17.877Z,10.10
2023-04-18T23:31:47.602Z,11.60
2023-04-18T23:34:16.968Z,11.50
2023-04-18T23:36:47.383Z,11.00
2023-04-18T23:39:19.323Z,7.60
2023-04-18T23:41:49.724Z,8.10
2023-04-18T23:44:20.779Z,9.90
2023-04-18T23:46:51.216Z,8.20
2023-04-18T23:49:22.160Z,7.70
2023-04-18T23:51:52.240Z,9.20
2023-04-18T23:54:22.907Z,10.20
2023-04-18T23:56:53.109Z,12.20
